Time;durP1;ratioP1;P1;durP2;ratioP2;P2;SDS_P1;SDS_P2;PMS_P1;PMS_P2;Temp;Humidity;BMP_temperature;BMP_pressure;BME280_temperature;BME280_humidity;BME280_pressure;Samples;Min_cycle;Max_cycle;Signal;HPM_P1;HPM_P2
2023/02/28 00:01:44;;;;;;;2.58;2.38;;;2.10;1.00;;;;;;5060548;28;20710;-75
2023/02/28 00:04:12;;;;;;;2.58;2.20;;;2.20;1.00;;;;;;5060404;28;20237;-79
2023/02/28 00:06:42;;;;;;;2.42;2.25;;;2.20;1.00;;;;;;5039956;28;20193;-78
2023/02/28 00:09:11;;;;;;;2.80;2.47;;;2.10;1.00;;;;;;5052284;28;20198;-78
2023/02/28 00:11:39;;;;;;;2.63;2.42;;;2.10;1.00;;;;;;5055478;28;20857;-77
2023/02/28 00:14:07;;;;;;;2.70;2.50;;;2.00;1.00;;;;;;5055417;28;20305;-77
2023/02/28 00:16:35;;;;;;;2.90;2.70;;;2.00;1.00;;;;;;5041853;28;20193;-77
2023/02/28 00:19:03;;;;;;;2.85;2.65;;;2.00;1.00;;;;;;5058042;28;20247;-76
2023/02/28 00:21:32;;;;;;;2.58;2.42;;;2.00;1.00;;;;;;5053769;28;20233;-78
2023/02/28 00:24:01;;;;;;;2.55;2.45;;;2.10;1.00;;;;;;5046399;28;20204;-76
2023/02/28 00:26:29;;;;;;;2.40;2.30;;;2.00;1.00;;;;;;5060990;28;20640;-77
2023/02/28 00:28:57;;;;;;;2.90;2.70;;;1.90;1.00;;;;;;5059483;28;20197;-77
2023/02/28 00:31:25;;;;;;;2.97;2.42;;;1.90;1.00;;;;;;5065291;28;20254;-78
2023/02/28 00:33:54;;;;;;;2.83;2.50;;;1.90;1.00;;;;;;5057638;28;20218;-76
2023/02/28 00:36:22;;;;;;;2.50;2.40;;;1.90;1.00;;;;;;5060340;28;20201;-77
2023/02/28 00:38:50;;;;;;;2.92;2.72;;;1.90;1.00;;;;;;5061050;28;20211;-79
2023/02/28 00:41:20;;;;;;;2.55;2.35;;;1.90;1.00;;;;;;5060883;28;20569;-77
2023/02/28 00:43:48;;;;;;;3.60;2.70;;;1.90;1.00;;;;;;5061362;28;20699;-78
2023/02/28 00:46:16;;;;;;;3.05;2.83;;;1.90;1.00;;;;;;5062736;28;20200;-78
2023/02/28 00:48:44;;;;;;;3.42;2.50;;;1.90;1.00;;;;;;5062149;28;21655;-77
2023/02/28 00:51:12;;;;;;;3.17;2.88;;;1.80;1.00;;;;;;5059945;28;20708;-78
2023/02/28 00:53:40;;;;;;;2.45;2.35;;;1.80;1.00;;;;;;5047495;28;20205;-78
2023/02/28 00:56:08;;;;;;;2.80;2.65;;;1.80;1.00;;;;;;5048178;28;20220;-78
2023/02/28 00:58:38;;;;;;;3.10;2.80;;;1.70;1.00;;;;;;5059718;28;20280;-76
2023/02/28 01:01:07;;;;;;;2.50;2.40;;;1.70;1.00;;;;;;5059986;28;20237;-76
2023/02/28 01:03:35;;;;;;;2.38;2.20;;;1.70;1.00;;;;;;5058335;28;20265;-76
2023/02/28 01:06:03;;;;;;;2.85;2.70;;;1.50;1.00;;;;;;5058773;28;20194;-77
2023/02/28 01:08:31;;;;;;;2.42;2.28;;;1.50;1.00;;;;;;5062371;28;20209;-76
2023/02/28 01:11:09;;;;;;;2.45;2.35;;;1.60;1.00;;;;;;5062356;28;20200;-78
2023/02/28 01:13:38;;;;;;;3.35;3.03;;;1.60;1.00;;;;;;5064532;28;20667;-78
2023/02/28 01:16:08;;;;;;;2.58;2.47;;;1.60;1.00;;;;;;5065672;28;20197;-75
2023/02/28 01:18:37;;;;;;;2.88;2.78;;;1.70;1.00;;;;;;5065697;28;20197;-76
2023/02/28 01:21:05;;;;;;;2.38;2.28;;;1.70;1.00;;;;;;5047407;28;20245;-76
2023/02/28 01:23:33;;;;;;;2.72;2.53;;;1.60;1.00;;;;;;5062132;28;20247;-77
2023/02/28 01:26:05;;;;;;;2.90;2.70;;;1.70;1.00;;;;;;5069070;28;20204;-77
2023/02/28 01:28:34;;;;;;;3.30;2.85;;;1.60;1.00;;;;;;5045004;28;20197;-78
2023/02/28 01:31:03;;;;;;;2.63;2.42;;;1.60;1.00;;;;;;5066167;28;20239;-77
2023/02/28 01:33:32;;;;;;;2.92;2.72;;;1.60;1.00;;;;;;5068961;28;20193;-77
2023/02/28 01:36:00;;;;;;;6.88;3.85;;;1.60;1.00;;;;;;5072805;28;20242;-77
2023/02/28 01:38:29;;;;;;;2.92;2.67;;;1.60;1.00;;;;;;5070095;28;20190;-76
2023/02/28 01:40:57;;;;;;;2.88;2.67;;;1.60;1.00;;;;;;5064374;28;20206;-76
2023/02/28 01:43:28;;;;;;;3.50;3.30;;;1.60;1.00;;;;;;5065086;28;20214;-76
2023/02/28 01:45:58;;;;;;;2.85;2.70;;;1.60;1.00;;;;;;5062193;28;20204;-77
2023/02/28 01:48:31;;;;;;;3.28;3.08;;;1.50;1.00;;;;;;5061623;28;20197;-77
2023/02/28 01:51:05;;;;;;;3.00;2.80;;;1.50;1.00;;;;;;5065126;28;20276;-74
2023/02/28 01:53:38;;;;;;;3.17;3.00;;;1.50;1.00;;;;;;5067583;28;20200;-77
2023/02/28 01:56:10;;;;;;;3.47;3.17;;;1.50;1.00;;;;;;5063487;28;20205;-76
2023/02/28 01:58:39;;;;;;;2.88;2.63;;;1.50;1.00;;;;;;5063225;28;20198;-77
2023/02/28 02:01:07;;;;;;;3.05;2.75;;;1.50;1.00;;;;;;5026390;28;20735;-77
2023/02/28 02:03:37;;;;;;;3.33;3.05;;;1.50;1.00;;;;;;5062727;28;20254;-75
2023/02/28 02:06:05;;;;;;;3.50;3.30;;;1.50;1.00;;;;;;5067076;28;20197;-76
2023/02/28 02:08:33;;;;;;;3.20;3.00;;;1.50;1.00;;;;;;5061395;28;20246;-76
2023/02/28 02:11:03;;;;;;;3.50;3.30;;;1.50;1.00;;;;;;5061511;28;20251;-79
2023/02/28 02:14:06;;;;;;;3.92;3.60;;;1.40;1.00;;;;;;5061996;28;20201;-74
2023/02/28 02:16:51;;;;;;;3.20;3.00;;;1.40;1.00;;;;;;5066942;28;20232;-75
2023/02/28 02:19:47;;;;;;;2.85;2.75;;;1.40;1.00;;;;;;5058753;28;20209;-77
2023/02/28 02:22:56;;;;;;;2.90;2.80;;;1.40;1.00;;;;;;5051219;28;20220;-77
2023/02/28 02:25:29;;;;;;;3.00;2.80;;;1.40;1.00;;;;;;5042093;28;20315;-78
2023/02/28 02:28:36;;;;;;;3.42;3.13;;;1.40;1.00;;;;;;5060577;28;20227;-77
2023/02/28 02:31:29;;;;;;;3.03;2.83;;;1.40;1.00;;;;;;5033317;28;20208;-76
2023/02/28 02:34:29;;;;;;;3.78;3.50;;;1.40;1.00;;;;;;5061135;28;20308;-77
2023/02/28 02:37:07;;;;;;;3.25;3.10;;;1.30;1.00;;;;;;5063669;28;20193;-75
2023/02/28 02:39:45;;;;;;;3.88;3.58;;;1.30;1.00;;;;;;5060095;28;20741;-76
2023/02/28 02:42:16;;;;;;;3.40;3.20;;;1.30;1.00;;;;;;5061943;28;20278;-76
2023/02/28 02:44:48;;;;;;;3.67;3.47;;;1.30;1.00;;;;;;5063546;28;20251;-75
2023/02/28 02:47:20;;;;;;;4.18;3.88;;;1.30;1.00;;;;;;5066824;28;20697;-76
2023/02/28 02:49:52;;;;;;;3.90;3.60;;;1.30;1.00;;;;;;5062601;28;20212;-74
2023/02/28 02:52:25;;;;;;;4.20;3.80;;;1.30;1.00;;;;;;5062883;28;20207;-77
2023/02/28 02:54:56;;;;;;;5.00;3.70;;;1.30;1.00;;;;;;5064835;28;20239;-77
2023/02/28 02:57:27;;;;;;;4.55;4.25;;;1.30;1.00;;;;;;5062615;28;20224;-76
2023/02/28 02:59:58;;;;;;;3.53;3.33;;;1.40;1.00;;;;;;5059260;28;20205;-77
2023/02/28 03:02:33;;;;;;;4.40;3.80;;;1.40;1.00;;;;;;5057999;28;20193;-79
2023/02/28 03:05:07;;;;;;;3.78;3.58;;;1.40;1.00;;;;;;5039899;28;20627;-76
2023/02/28 03:07:35;;;;;;;4.00;3.70;;;1.40;1.00;;;;;;5068676;28;20204;-76
2023/02/28 03:10:04;;;;;;;4.95;3.50;;;1.40;1.00;;;;;;5064351;28;20211;-75
2023/02/28 03:12:41;;;;;;;3.72;3.30;;;1.40;1.00;;;;;;5059954;28;20239;-78
2023/02/28 03:15:15;;;;;;;3.70;3.40;;;1.40;1.00;;;;;;5061852;28;20730;-79
2023/02/28 03:17:55;;;;;;;3.55;3.30;;;1.40;1.00;;;;;;5062546;28;20207;-77
2023/02/28 03:20:35;;;;;;;5.03;4.65;;;1.40;1.00;;;;;;5059114;28;20299;-77
2023/02/28 03:23:18;;;;;;;4.40;4.20;;;1.50;1.00;;;;;;5060284;28;20269;-75
2023/02/28 03:25:56;;;;;;;4.13;3.80;;;1.40;1.00;;;;;;5058284;28;20657;-75
2023/02/28 03:28:32;;;;;;;5.00;4.60;;;1.50;1.00;;;;;;5061046;28;20193;-75
2023/02/28 03:31:03;;;;;;;4.90;4.57;;;1.40;1.00;;;;;;5062202;28;20284;-77
2023/02/28 03:33:37;;;;;;;4.85;3.90;;;1.40;1.00;;;;;;5062033;28;20205;-77
2023/02/28 03:36:12;;;;;;;5.20;4.80;;;1.50;1.00;;;;;;5062061;28;20189;-76
2023/02/28 03:38:45;;;;;;;4.97;4.57;;;1.40;1.00;;;;;;5059605;28;20198;-78
2023/02/28 03:41:17;;;;;;;6.43;4.93;;;1.40;1.00;;;;;;5063746;28;20196;-79
2023/02/28 03:43:50;;;;;;;4.60;4.30;;;1.50;1.00;;;;;;5061621;28;20229;-78
2023/02/28 03:46:22;;;;;;;5.43;4.40;;;1.50;1.00;;;;;;5061091;28;20232;-77
2023/02/28 03:48:56;;;;;;;4.60;4.20;;;1.50;1.00;;;;;;5045339;28;20193;-74
2023/02/28 03:51:30;;;;;;;4.40;4.10;;;1.50;1.00;;;;;;5064154;28;20200;-76
2023/02/28 03:54:02;;;;;;;5.30;4.80;;;1.50;1.00;;;;;;5062389;28;20577;-75
2023/02/28 03:56:37;;;;;;;4.70;4.40;;;1.50;1.00;;;;;;5058781;28;20279;-76
2023/02/28 03:59:11;;;;;;;4.50;4.30;;;1.50;1.00;;;;;;5058275;28;20279;-77
2023/02/28 04:01:42;;;;;;;4.85;4.65;;;1.50;1.00;;;;;;5056541;28;20635;-76
2023/02/28 04:04:11;;;;;;;5.28;4.97;;;1.60;1.00;;;;;;5059866;28;20233;-77
2023/02/28 04:06:42;;;;;;;5.78;5.28;;;1.50;1.00;;;;;;5063103;28;20227;-78
2023/02/28 04:09:12;;;;;;;8.00;5.05;;;1.60;1.00;;;;;;5062623;28;20201;-77
2023/02/28 04:11:42;;;;;;;6.18;5.38;;;1.60;1.00;;;;;;5062594;28;20293;-79
2023/02/28 04:14:11;;;;;;;5.03;4.72;;;1.60;1.00;;;;;;5059318;28;20220;-76
2023/02/28 04:16:41;;;;;;;6.05;5.75;;;1.60;1.00;;;;;;5057849;28;20193;-76
2023/02/28 04:19:11;;;;;;;6.30;5.90;;;1.60;1.00;;;;;;5060699;28;20209;-77
2023/02/28 04:21:43;;;;;;;6.50;6.07;;;1.60;1.00;;;;;;5058766;28;20247;-76
2023/02/28 04:24:14;;;;;;;6.45;6.05;;;1.60;1.00;;;;;;5060665;28;20229;-76
2023/02/28 04:26:44;;;;;;;7.00;6.55;;;1.60;1.00;;;;;;5060700;28;20210;-79
2023/02/28 04:29:14;;;;;;;6.15;5.85;;;1.60;1.00;;;;;;5064737;28;20209;-76
2023/02/28 04:31:42;;;;;;;6.50;6.00;;;1.50;1.00;;;;;;5057359;28;20286;-76
2023/02/28 04:34:10;;;;;;;6.85;6.35;;;1.50;1.00;;;;;;5059243;28;20213;-78
2023/02/28 04:36:38;;;;;;;7.07;6.60;;;1.50;1.00;;;;;;5063058;28;20202;-78
2023/02/28 04:39:09;;;;;;;7.20;6.80;;;1.60;1.00;;;;;;5064425;28;20214;-76
2023/02/28 04:41:37;;;;;;;6.70;6.40;;;1.60;1.00;;;;;;5057404;28;20220;-76
2023/02/28 04:44:05;;;;;;;6.68;6.38;;;1.60;1.00;;;;;;5061705;28;20210;-76
2023/02/28 04:46:33;;;;;;;6.80;6.40;;;1.60;1.00;;;;;;5045239;28;20197;-77
2023/02/28 04:49:01;;;;;;;7.05;6.43;;;1.60;1.00;;;;;;5065542;28;20197;-77
2023/02/28 04:51:30;;;;;;;7.03;6.53;;;1.60;1.00;;;;;;5065771;28;20209;-76
2023/02/28 04:53:58;;;;;;;6.90;6.40;;;1.60;1.00;;;;;;5062354;28;20647;-75
2023/02/28 04:56:28;;;;;;;6.50;6.10;;;1.60;1.00;;;;;;5069759;28;20789;-75
2023/02/28 04:58:56;;;;;;;6.28;5.93;;;1.70;1.00;;;;;;5062163;28;20195;-76
2023/02/28 05:01:26;;;;;;;7.05;6.45;;;1.70;1.00;;;;;;5058149;28;20258;-76
2023/02/28 05:03:57;;;;;;;6.53;6.13;;;1.70;1.00;;;;;;5066093;28;20305;-77
2023/02/28 05:06:27;;;;;;;6.75;6.28;;;1.70;1.00;;;;;;5066499;28;20693;-76
2023/02/28 05:08:56;;;;;;;7.22;6.80;;;1.70;1.00;;;;;;5061469;28;20670;-77
2023/02/28 05:11:26;;;;;;;6.55;6.15;;;1.70;1.00;;;;;;5067157;28;20199;-77
2023/02/28 05:13:56;;;;;;;6.90;6.47;;;1.70;1.00;;;;;;5066549;28;20230;-76
2023/02/28 05:16:24;;;;;;;7.50;6.90;;;1.70;1.00;;;;;;5064802;28;20203;-77
2023/02/28 05:18:55;;;;;;;7.55;7.15;;;1.70;1.00;;;;;;5067902;28;20199;-76
2023/02/28 05:21:27;;;;;;;7.22;6.72;;;1.70;1.00;;;;;;5065376;28;20621;-77
2023/02/28 05:23:57;;;;;;;7.60;7.03;;;1.70;1.00;;;;;;5062112;28;20221;-80
2023/02/28 05:26:26;;;;;;;7.63;7.10;;;1.60;1.00;;;;;;5066697;28;20212;-76
2023/02/28 05:28:55;;;;;;;6.70;6.30;;;1.60;1.00;;;;;;5065799;28;20224;-77
2023/02/28 05:31:24;;;;;;;6.82;6.28;;;1.70;1.00;;;;;;5068071;28;20228;-75
2023/02/28 05:33:52;;;;;;;6.72;6.32;;;1.60;1.00;;;;;;5065052;28;20298;-78
2023/02/28 05:36:21;;;;;;;7.43;6.78;;;1.60;1.00;;;;;;5037295;28;20240;-76
2023/02/28 05:38:49;;;;;;;6.88;6.45;;;1.70;1.60;;;;;;5064672;28;20204;-76
2023/02/28 05:41:19;;;;;;;7.43;6.88;;;1.70;3.10;;;;;;5063971;28;20203;-76
2023/02/28 05:43:48;;;;;;;6.60;6.30;;;1.70;4.00;;;;;;5063074;28;20291;-75
2023/02/28 05:46:17;;;;;;;7.85;7.20;;;1.70;4.40;;;;;;5063804;28;20210;-74
2023/02/28 05:48:48;;;;;;;7.25;6.65;;;1.70;5.20;;;;;;5061320;28;20741;-75
2023/02/28 05:51:17;;;;;;;7.22;6.80;;;1.80;5.30;;;;;;5063817;28;20686;-77
2023/02/28 05:53:45;;;;;;;7.10;6.70;;;1.80;6.80;;;;;;5061247;28;20210;-74
2023/02/28 05:56:13;;;;;;;7.97;7.10;;;1.80;6.80;;;;;;5064522;28;20193;-75
2023/02/28 05:58:42;;;;;;;7.00;6.40;;;1.80;8.70;;;;;;5057564;28;20205;-75
2023/02/28 06:01:36;;;;;;;7.30;6.90;;;1.80;20.00;;;;;;5062314;28;20201;-75
2023/02/28 06:04:06;;;;;;;7.55;6.95;;;1.80;9.90;;;;;;5065535;28;20250;-77
2023/02/28 06:06:35;;;;;;;9.40;8.65;;;1.80;10.50;;;;;;5046776;28;20225;-74
2023/02/28 06:09:04;;;;;;;8.60;7.93;;;1.80;11.90;;;;;;5066128;28;20219;-76
2023/02/28 06:11:33;;;;;;;8.25;7.55;;;1.80;12.40;;;;;;5058299;28;20193;-75
2023/02/28 06:14:02;;;;;;;7.65;7.25;;;1.80;15.00;;;;;;5060552;28;20229;-75
2023/02/28 06:16:34;;;;;;;8.80;8.10;;;1.80;16.00;;;;;;5048136;28;20235;-75
2023/02/28 06:19:04;;;;;;;7.75;7.35;;;1.80;16.80;;;;;;5049781;28;20297;-74
2023/02/28 06:21:32;;;;;;;8.20;7.60;;;1.80;18.30;;;;;;5053128;28;20300;-76
2023/02/28 06:24:01;;;;;;;8.07;7.55;;;1.80;20.50;;;;;;5054625;28;20250;-74
2023/02/28 06:26:29;;;;;;;8.52;8.00;;;1.80;22.50;;;;;;5055995;28;20218;-78
2023/02/28 06:28:57;;;;;;;7.93;7.28;;;1.90;25.40;;;;;;5048945;28;20206;-75
2023/02/28 06:31:25;;;;;;;8.50;7.82;;;1.80;24.30;;;;;;5053077;28;20197;-75
2023/02/28 06:33:56;;;;;;;8.55;8.05;;;1.80;25.70;;;;;;5051248;28;20264;-78
2023/02/28 06:36:24;;;;;;;8.90;8.30;;;1.80;28.10;;;;;;5053510;28;20209;-76
2023/02/28 06:38:54;;;;;;;8.18;7.70;;;1.90;40.10;;;;;;5055292;28;20263;-75
2023/02/28 06:41:24;;;;;;;10.48;9.70;;;1.90;30.20;;;;;;5060091;28;20320;-75
2023/02/28 06:43:52;;;;;;;9.07;8.35;;;1.90;32.10;;;;;;5048915;28;20211;-77
2023/02/28 06:46:20;;;;;;;9.43;8.63;;;1.90;31.30;;;;;;5054212;28;20707;-75
2023/02/28 06:48:49;;;;;;;8.35;7.75;;;1.90;32.20;;;;;;5048207;28;20253;-75
2023/02/28 06:51:21;;;;;;;8.85;8.35;;;1.90;32.20;;;;;;5053019;28;21806;-75
2023/02/28 06:53:50;;;;;;;9.02;8.48;;;1.90;31.80;;;;;;5057854;28;20922;-75
2023/02/28 06:56:20;;;;;;;9.20;8.50;;;1.90;32.60;;;;;;5054214;28;20203;-76
2023/02/28 06:58:49;;;;;;;9.02;8.43;;;1.90;35.20;;;;;;5059961;28;20224;-78
2023/02/28 07:01:18;;;;;;;8.57;8.07;;;1.90;34.10;;;;;;5058488;28;20202;-75
2023/02/28 07:03:51;;;;;;;9.75;9.05;;;1.90;33.90;;;;;;5058115;28;20206;-77
2023/02/28 07:06:22;;;;;;;9.00;8.38;;;1.90;31.60;;;;;;5059582;28;20225;-76
2023/02/28 07:08:51;;;;;;;9.40;8.77;;;2.00;29.60;;;;;;5062153;28;20208;-76
2023/02/28 07:11:21;;;;;;;9.23;8.63;;;1.90;29.40;;;;;;5057840;28;20249;-77
2023/02/28 07:13:49;;;;;;;9.38;8.68;;;1.90;30.60;;;;;;5057715;28;20209;-79
2023/02/28 07:16:17;;;;;;;8.80;8.10;;;2.00;30.70;;;;;;5055204;28;20281;-76
2023/02/28 07:18:45;;;;;;;9.75;8.90;;;2.00;29.70;;;;;;5058233;28;20290;-77
2023/02/28 07:21:14;;;;;;;9.95;9.25;;;1.90;29.80;;;;;;5041785;28;20207;-75
2023/02/28 07:23:43;;;;;;;9.25;8.65;;;2.00;28.60;;;;;;5038424;28;20226;-78
2023/02/28 07:26:15;;;;;;;8.38;7.82;;;2.00;28.40;;;;;;5056387;28;20215;-77
2023/02/28 07:28:43;;;;;;;9.07;8.38;;;2.00;25.80;;;;;;5056641;28;20201;-78
2023/02/28 07:31:13;;;;;;;8.90;8.20;;;2.00;27.50;;;;;;5059592;28;20232;-77
2023/02/28 07:33:42;;;;;;;9.38;8.45;;;2.00;26.60;;;;;;5059596;28;20784;-76
2023/02/28 07:36:15;;;;;;;9.35;8.45;;;2.00;27.50;;;;;;5058050;28;21182;-77
2023/02/28 07:38:46;;;;;;;8.60;8.00;;;2.00;27.00;;;;;;5060312;28;20239;-76
2023/02/28 07:41:16;;;;;;;9.02;8.32;;;2.10;27.40;;;;;;5059798;28;20204;-77
2023/02/28 07:43:45;;;;;;;9.40;8.60;;;2.10;24.40;;;;;;5058241;28;20212;-77
2023/02/28 07:46:15;;;;;;;8.85;8.15;;;2.10;24.30;;;;;;5057237;28;20221;-77
2023/02/28 07:48:45;;;;;;;10.63;9.00;;;2.10;24.00;;;;;;5058266;28;20286;-77
2023/02/28 07:51:13;;;;;;;8.35;7.65;;;2.10;24.80;;;;;;5057514;28;20208;-76
2023/02/28 07:53:41;;;;;;;8.70;8.00;;;2.10;25.30;;;;;;5056126;28;20205;-76
2023/02/28 07:56:11;;;;;;;9.55;8.75;;;2.20;24.20;;;;;;5058742;28;20198;-75
2023/02/28 07:58:39;;;;;;;9.07;8.27;;;2.20;24.80;;;;;;5056450;28;20785;-77
2023/02/28 08:01:09;;;;;;;8.68;7.88;;;2.20;23.50;;;;;;5036756;28;20200;-75
2023/02/28 08:03:38;;;;;;;9.30;8.60;;;2.30;23.40;;;;;;5057712;28;20251;-77
2023/02/28 08:06:08;;;;;;;9.40;8.73;;;2.30;23.00;;;;;;5055464;28;20240;-78
2023/02/28 08:08:36;;;;;;;9.05;8.25;;;2.30;22.70;;;;;;5060950;28;20251;-76
2023/02/28 08:11:04;;;;;;;7.95;7.35;;;2.30;22.20;;;;;;5034028;28;20292;-78
2023/02/28 08:13:34;;;;;;;9.65;8.68;;;2.40;22.10;;;;;;5059578;28;20416;-77
2023/02/28 08:16:04;;;;;;;8.70;7.97;;;2.40;21.30;;;;;;5050730;28;20202;-76
2023/02/28 08:18:33;;;;;;;9.18;8.38;;;2.40;20.20;;;;;;5059713;28;20216;-77
2023/02/28 08:21:07;;;;;;;9.10;8.30;;;2.30;19.90;;;;;;5059532;28;20207;-77
2023/02/28 08:23:35;;;;;;;9.30;8.40;;;2.40;20.60;;;;;;5060170;28;20686;-79
2023/02/28 08:26:04;;;;;;;10.35;9.45;;;2.40;18.90;;;;;;5055714;28;20447;-79
2023/02/28 08:28:34;;;;;;;9.75;8.85;;;2.30;22.00;;;;;;5044795;28;20608;-78
2023/02/28 08:31:07;;;;;;;9.05;8.30;;;2.50;23.50;;;;;;5057593;28;20207;-77
2023/02/28 08:33:36;;;;;;;9.65;8.57;;;2.50;21.40;;;;;;5058126;28;20197;-77
2023/02/28 08:36:04;;;;;;;10.00;9.30;;;2.50;22.20;;;;;;5058286;28;20498;-78
2023/02/28 08:38:32;;;;;;;9.27;8.52;;;2.30;20.30;;;;;;5062865;28;20412;-76
2023/02/28 08:41:02;;;;;;;9.40;8.63;;;2.50;22.00;;;;;;5059213;28;20312;-76
2023/02/28 08:43:30;;;;;;;8.80;8.10;;;2.50;21.60;;;;;;5059575;28;20951;-77
2023/02/28 08:46:00;;;;;;;9.10;8.38;;;2.50;19.40;;;;;;5059376;28;20222;-76
2023/02/28 08:48:31;;;;;;;9.10;8.30;;;2.50;17.30;;;;;;5053494;28;20211;-79
2023/02/28 08:51:00;;;;;;;8.23;7.63;;;2.50;18.70;;;;;;5057743;28;20208;-75
2023/02/28 08:53:35;;;;;;;11.07;9.02;;;2.50;19.30;;;;;;5060828;28;20205;-75
2023/02/28 08:56:06;;;;;;;8.48;7.68;;;2.40;18.90;;;;;;5059280;28;20212;-76
2023/02/28 08:58:35;;;;;;;8.50;7.70;;;2.50;20.20;;;;;;5059404;28;20214;-77
2023/02/28 09:01:11;;;;;;;9.55;8.65;;;2.50;19.20;;;;;;5060006;28;20221;-76
2023/02/28 09:03:41;;;;;;;9.95;8.95;;;2.60;19.30;;;;;;5061400;28;20204;-75
2023/02/28 09:06:11;;;;;;;8.85;8.00;;;2.60;20.00;;;;;;5061895;28;20659;-77
2023/02/28 09:08:39;;;;;;;10.02;9.05;;;2.60;18.30;;;;;;5058877;28;21008;-76
2023/02/28 09:11:08;;;;;;;9.00;8.30;;;2.50;18.50;;;;;;5059191;28;20205;-76
2023/02/28 09:13:36;;;;;;;9.20;8.35;;;2.60;18.80;;;;;;5062851;28;20245;-77
2023/02/28 09:16:06;;;;;;;9.50;8.70;;;2.60;19.00;;;;;;5071456;28;20208;-78
2023/02/28 09:18:37;;;;;;;10.00;9.20;;;2.60;19.40;;;;;;5043059;28;20293;-77
2023/02/28 09:21:09;;;;;;;8.23;7.72;;;2.70;19.00;;;;;;5065141;28;20220;-76
2023/02/28 09:23:38;;;;;;;9.15;8.45;;;2.60;15.60;;;;;;5065592;28;20205;-77
2023/02/28 09:26:07;;;;;;;8.23;7.72;;;2.60;17.20;;;;;;5033412;28;20555;-78
2023/02/28 09:28:35;;;;;;;9.00;8.30;;;2.60;18.60;;;;;;5056294;28;20275;-75
2023/02/28 09:31:04;;;;;;;9.48;8.57;;;2.50;14.50;;;;;;5055074;28;20224;-77
2023/02/28 09:33:34;;;;;;;10.02;9.02;;;2.50;27.20;;;;;;5056023;28;20208;-77
2023/02/28 09:36:04;;;;;;;10.07;9.25;;;2.60;19.20;;;;;;5049351;28;20232;-77
2023/02/28 09:38:32;;;;;;;9.32;8.60;;;2.70;19.50;;;;;;5053167;28;20260;-78
2023/02/28 09:41:03;;;;;;;9.07;8.20;;;2.80;18.40;;;;;;5051225;28;20204;-76
2023/02/28 09:43:36;;;;;;;8.82;8.13;;;2.80;18.50;;;;;;5056504;28;20200;-77
2023/02/28 09:46:13;;;;;;;9.23;8.32;;;2.70;17.80;;;;;;5059149;28;20216;-76
2023/02/28 09:48:46;;;;;;;9.82;8.95;;;2.80;18.80;;;;;;5058717;28;20221;-77
2023/02/28 09:51:29;;;;;;;9.23;8.40;;;2.90;18.50;;;;;;5036571;28;20201;-77
2023/02/28 09:53:57;;;;;;;9.50;8.80;;;2.90;17.50;;;;;;5034866;28;20220;-75
2023/02/28 09:56:36;;;;;;;12.40;9.25;;;2.90;18.20;;;;;;5051062;28;20201;-76
2023/02/28 09:59:15;;;;;;;9.25;8.38;;;2.90;28.10;;;;;;5055758;28;20202;-78
2023/02/28 10:01:52;;;;;;;10.98;9.52;;;2.90;18.10;;;;;;5055629;28;20213;-77
2023/02/28 10:04:37;;;;;;;9.85;9.00;;;3.00;18.00;;;;;;5057873;28;20467;-77
2023/02/28 10:07:19;;;;;;;8.40;7.68;;;3.00;19.20;;;;;;5050510;28;20247;-76
2023/02/28 10:09:53;;;;;;;9.20;8.30;;;3.00;17.80;;;;;;5051244;28;20224;-76
2023/02/28 10:12:21;;;;;;;8.65;7.75;;;2.90;15.30;;;;;;5056599;28;20294;-76
2023/02/28 10:14:53;;;;;;;9.70;8.80;;;2.90;15.00;;;;;;5063941;28;20211;-75
2023/02/28 10:17:24;;;;;;;9.73;8.93;;;3.00;15.60;;;;;;5057440;28;20205;-76
2023/02/28 10:20:00;;;;;;;10.43;9.48;;;3.10;16.40;;;;;;5053899;28;20210;-75
2023/02/28 10:22:36;;;;;;;10.10;9.20;;;3.10;16.00;;;;;;5052701;28;20201;-77
2023/02/28 10:25:18;;;;;;;9.52;8.63;;;3.10;15.00;;;;;;5030582;28;20475;-76
2023/02/28 10:27:46;;;;;;;9.23;8.43;;;3.20;15.00;;;;;;5057017;28;20214;-77
2023/02/28 10:30:15;;;;;;;9.15;8.35;;;3.10;14.20;;;;;;5056849;28;20211;-73
2023/02/28 10:32:50;;;;;;;9.80;9.00;;;3.20;15.30;;;;;;5035758;28;20244;-79
2023/02/28 10:35:21;;;;;;;8.75;7.93;;;3.30;16.60;;;;;;5052252;28;21055;-78
2023/02/28 10:37:54;;;;;;;10.02;9.20;;;3.50;16.80;;;;;;5054930;28;20759;-76
2023/02/28 10:40:32;;;;;;;9.60;8.77;;;3.50;16.50;;;;;;5053778;28;20222;-79
2023/02/28 10:43:02;;;;;;;8.40;7.80;;;3.70;17.20;;;;;;5054657;28;20329;-78
2023/02/28 10:45:33;;;;;;;9.05;8.23;;;3.80;15.80;;;;;;5056405;28;20289;-77
2023/02/28 10:48:05;;;;;;;9.38;8.10;;;4.40;19.50;;;;;;5054468;28;20220;-76
2023/02/28 10:50:45;;;;;;;9.40;8.50;;;4.50;17.60;;;;;;5057395;28;20218;-76
2023/02/28 10:53:32;;;;;;;9.40;8.60;;;4.70;18.70;;;;;;5052404;28;20204;-76
2023/02/28 10:56:15;;;;;;;9.45;8.65;;;5.30;20.00;;;;;;5058006;28;20502;-78
2023/02/28 10:58:53;;;;;;;8.90;8.10;;;5.20;17.70;;;;;;5067014;28;20197;-77
2023/02/28 11:01:23;;;;;;;9.43;8.63;;;5.30;17.70;;;;;;5059067;28;20458;-77
2023/02/28 11:03:53;;;;;;;10.37;9.50;;;8.30;39.10;;;;;;5068530;28;20468;-78
2023/02/28 11:06:24;;;;;;;9.80;8.80;;;9.50;38.70;;;;;;5060042;28;20476;-78
2023/02/28 11:08:56;;;;;;;9.10;8.40;;;8.60;22.80;;;;;;5063371;28;20473;-78
2023/02/28 11:11:27;;;;;;;9.70;8.90;;;7.50;11.00;;;;;;5062788;28;20933;-77
2023/02/28 11:14:03;;;;;;;9.03;8.27;;;6.80;5.70;;;;;;5059772;28;20450;-77
2023/02/28 11:16:36;;;;;;;20.97;12.47;;;6.10;1.00;;;;;;5054963;28;20484;-76
2023/02/28 11:19:07;;;;;;;9.50;8.70;;;7.20;11.80;;;;;;5061235;28;20534;-77
2023/02/28 11:21:39;;;;;;;9.63;8.83;;;6.80;6.20;;;;;;5059154;28;20813;-77
2023/02/28 11:24:25;;;;;;;9.77;8.87;;;9.30;26.40;;;;;;5056611;28;20486;-79
2023/02/28 11:26:53;;;;;;;10.83;9.83;;;8.40;13.10;;;;;;5055520;28;20555;-77
2023/02/28 11:29:23;;;;;;;9.00;8.20;;;7.00;3.00;;;;;;5055020;28;20543;-77
2023/02/28 11:32:16;;;;;;;9.00;8.20;;;7.50;6.30;;;;;;5056139;28;20448;-78
2023/02/28 11:34:47;;;;;;;9.67;8.77;;;7.40;4.50;;;;;;5053802;28;20547;-78
2023/02/28 11:37:18;;;;;;;9.60;8.80;;;7.00;1.90;;;;;;5053038;28;20459;-76
2023/02/28 11:39:47;;;;;;;9.30;8.50;;;7.70;8.60;;;;;;5052134;28;20542;-79
2023/02/28 11:42:38;;;;;;;9.70;8.70;;;7.50;4.40;;;;;;5057604;28;20544;-76
2023/02/28 11:45:20;;;;;;;9.97;9.10;;;7.10;1.00;;;;;;5039323;28;20490;-77
2023/02/28 11:47:56;;;;;;;8.83;8.03;;;5.70;1.00;;;;;;5059427;28;20572;-76
2023/02/28 11:50:43;;;;;;;10.17;9.30;;;5.60;1.00;;;;;;5057945;28;20465;-76
2023/02/28 11:53:22;;;;;;;9.60;8.73;;;5.70;1.00;;;;;;5054637;28;20485;-77
2023/02/28 11:55:56;;;;;;;9.40;8.70;;;6.00;1.00;;;;;;5053922;28;21033;-76
2023/02/28 11:58:33;;;;;;;8.83;8.10;;;5.80;1.00;;;;;;5058430;28;20447;-78
2023/02/28 12:01:12;;;;;;;9.90;9.10;;;5.90;1.00;;;;;;5041261;28;20813;-76
2023/02/28 12:03:50;;;;;;;10.20;9.30;;;5.90;1.00;;;;;;5060278;28;20512;-79
2023/02/28 12:06:26;;;;;;;9.50;8.70;;;6.20;1.50;;;;;;5057164;28;20482;-76
2023/02/28 12:09:06;;;;;;;9.67;8.87;;;6.30;2.70;;;;;;5060299;28;20478;-77
2023/02/28 12:11:49;;;;;;;14.53;8.80;;;6.50;4.70;;;;;;5055801;28;20447;-77
2023/02/28 12:14:49;;;;;;;9.90;9.00;;;6.50;4.90;;;;;;5056472;28;20482;-78
2023/02/28 12:17:36;;;;;;;10.03;9.03;;;6.70;5.70;;;;;;5055713;28;20826;-77
2023/02/28 12:20:14;;;;;;;10.67;9.60;;;6.70;5.30;;;;;;5038075;28;20455;-77
2023/02/28 12:22:51;;;;;;;10.83;9.70;;;6.70;4.90;;;;;;5053295;28;20464;-76
2023/02/28 12:25:40;;;;;;;9.80;8.80;;;6.50;2.40;;;;;;5051225;28;20466;-79
2023/02/28 12:28:14;;;;;;;9.70;8.90;;;6.60;4.20;;;;;;5055736;28;20447;-77
2023/02/28 12:30:50;;;;;;;10.50;9.40;;;6.80;6.90;;;;;;5053095;28;20992;-79
2023/02/28 12:33:22;;;;;;;10.40;9.50;;;7.00;6.90;;;;;;5061143;28;20466;-77
2023/02/28 12:35:55;;;;;;;11.30;10.20;;;6.90;16.70;;;;;;5051045;28;20475;-78
2023/02/28 12:38:28;;;;;;;9.50;8.60;;;6.80;4.10;;;;;;5030139;28;20459;-77
2023/02/28 12:41:01;;;;;;;10.63;9.73;;;6.80;4.00;;;;;;5044462;28;22593;-76
2023/02/28 12:43:36;;;;;;;10.23;9.33;;;6.70;3.90;;;;;;5048375;28;20499;-77
2023/02/28 12:46:11;;;;;;;9.93;9.17;;;6.90;5.90;;;;;;5049000;28;20475;-76
2023/02/28 12:48:43;;;;;;;9.87;8.97;;;6.80;4.40;;;;;;5033334;28;20471;-76
2023/02/28 12:51:13;;;;;;;11.30;8.80;;;6.70;3.80;;;;;;5047498;28;20451;-77
2023/02/28 12:53:55;;;;;;;9.30;8.40;;;7.00;6.20;;;;;;5044355;28;20459;-76
2023/02/28 12:56:33;;;;;;;9.60;8.80;;;7.20;7.40;;;;;;5058649;28;20458;-77
2023/02/28 12:59:11;;;;;;;9.23;8.43;;;7.20;7.40;;;;;;5055555;28;20455;-77
2023/02/28 13:02:18;;;;;;;9.30;8.50;;;7.20;6.40;;;;;;5061613;28;20447;-77
2023/02/28 13:05:13;;;;;;;9.40;8.50;;;7.30;12.20;;;;;;5057266;28;20479;-76
2023/02/28 13:08:14;;;;;;;8.77;7.87;;;7.40;7.70;;;;;;5062301;28;20447;-77
2023/02/28 13:10:45;;;;;;;9.33;8.50;;;7.50;7.60;;;;;;5067366;28;20536;-78
2023/02/28 13:13:18;;;;;;;9.77;8.87;;;7.50;7.00;;;;;;5066238;28;20459;-78
2023/02/28 13:16:03;;;;;;;8.57;7.77;;;7.40;5.40;;;;;;5067080;28;20478;-77
2023/02/28 13:18:36;;;;;;;9.40;8.70;;;7.50;7.10;;;;;;5064924;28;20541;-76
2023/02/28 13:21:06;;;;;;;9.10;8.30;;;7.50;7.00;;;;;;5062714;28;20453;-76
2023/02/28 13:23:42;;;;;;;10.47;9.60;;;7.50;6.30;;;;;;5069121;28;20907;-77
2023/02/28 13:26:12;;;;;;;9.43;8.63;;;7.60;8.30;;;;;;5069714;28;20454;-77
2023/02/28 13:29:22;;;;;;;11.10;10.10;;;7.80;8.00;;;;;;5065520;28;20584;-76
2023/02/28 13:32:36;;;;;;;12.17;8.77;;;7.70;6.10;;;;;;5063307;28;20463;-76